sensor_id;sensor_type;location;lat;lon;timestamp;P1;durP1;ratioP1;P2;durP2;ratioP2
9260;SDS011;4667;42.726;23.252;2023-04-03T00:00:32;1.80;;;1.70;;
9260;SDS011;4667;42.726;23.252;2023-04-03T00:02:59;2.13;;;1.33;;
9260;SDS011;4667;42.726;23.252;2023-04-03T00:05:26;1.80;;;1.60;;
9260;SDS011;4667;42.726;23.252;2023-04-03T00:07:54;1.30;;;1.20;;
9260;SDS011;4667;42.726;23.252;2023-04-03T00:10:22;2.40;;;1.70;;
9260;SDS011;4667;42.726;23.252;2023-04-03T00:12:50;1.97;;;1.47;;
9260;SDS011;4667;42.726;23.252;2023-04-03T00:15:17;1.60;;;1.40;;
9260;SDS011;4667;42.726;23.252;2023-04-03T00:17:44;1.80;;;1.50;;
9260;SDS011;4667;42.726;23.252;2023-04-03T00:20:12;1.30;;;1.20;;
9260;SDS011;4667;42.726;23.252;2023-04-03T00:22:39;1.40;;;1.30;;
9260;SDS011;4667;42.726;23.252;2023-04-03T00:25:08;2.17;;;1.60;;
9260;SDS011;4667;42.726;23.252;2023-04-03T00:27:36;5.83;;;2.03;;
9260;SDS011;4667;42.726;23.252;2023-04-03T00:30:03;5.43;;;2.43;;
9260;SDS011;4667;42.726;23.252;2023-04-03T00:32:34;5.50;;;3.00;;
9260;SDS011;4667;42.726;23.252;2023-04-03T00:35:01;7.17;;;3.03;;
9260;SDS011;4667;42.726;23.252;2023-04-03T00:37:28;4.00;;;2.77;;
9260;SDS011;4667;42.726;23.252;2023-04-03T00:39:55;3.33;;;2.57;;
9260;SDS011;4667;42.726;23.252;2023-04-03T00:42:24;5.63;;;3.10;;
9260;SDS011;4667;42.726;23.252;2023-04-03T00:47:51;5.97;;;3.53;;
9260;SDS011;4667;42.726;23.252;2023-04-03T00:50:19;5.67;;;2.67;;
9260;SDS011;4667;42.726;23.252;2023-04-03T00:52:46;9.07;;;3.77;;
9260;SDS011;4667;42.726;23.252;2023-04-03T00:55:14;4.87;;;2.63;;
9260;SDS011;4667;42.726;23.252;2023-04-03T00:57:43;4.47;;;3.33;;
9260;SDS011;4667;42.726;23.252;2023-04-03T01:00:14;4.70;;;2.80;;
9260;SDS011;4667;42.726;23.252;2023-04-03T01:02:45;4.47;;;2.93;;
9260;SDS011;4667;42.726;23.252;2023-04-03T01:05:12;3.43;;;3.13;;
9260;SDS011;4667;42.726;23.252;2023-04-03T01:07:41;1.90;;;1.70;;
9260;SDS011;4667;42.726;23.252;2023-04-03T01:10:10;2.27;;;2.07;;
9260;SDS011;4667;42.726;23.252;2023-04-03T01:12:40;4.57;;;2.87;;
9260;SDS011;4667;42.726;23.252;2023-04-03T01:15:12;3.33;;;2.23;;
9260;SDS011;4667;42.726;23.252;2023-04-03T01:17:42;4.93;;;2.40;;
9260;SDS011;4667;42.726;23.252;2023-04-03T01:23:30;2.80;;;2.10;;
9260;SDS011;4667;42.726;23.252;2023-04-03T01:26:05;2.47;;;2.27;;
9260;SDS011;4667;42.726;23.252;2023-04-03T01:28:34;2.10;;;1.90;;
9260;SDS011;4667;42.726;23.252;2023-04-03T01:31:06;2.80;;;2.27;;
9260;SDS011;4667;42.726;23.252;2023-04-03T01:33:43;2.70;;;1.97;;
9260;SDS011;4667;42.726;23.252;2023-04-03T01:36:13;3.23;;;2.30;;
9260;SDS011;4667;42.726;23.252;2023-04-03T01:38:41;3.97;;;2.10;;
9260;SDS011;4667;42.726;23.252;2023-04-03T01:41:08;4.50;;;2.10;;
9260;SDS011;4667;42.726;23.252;2023-04-03T01:43:35;2.33;;;1.67;;
9260;SDS011;4667;42.726;23.252;2023-04-03T01:46:02;2.30;;;2.10;;
9260;SDS011;4667;42.726;23.252;2023-04-03T01:48:29;1.90;;;1.60;;
9260;SDS011;4667;42.726;23.252;2023-04-03T01:50:57;1.93;;;1.80;;
9260;SDS011;4667;42.726;23.252;2023-04-03T01:53:24;2.40;;;2.20;;
9260;SDS011;4667;42.726;23.252;2023-04-03T01:55:51;2.27;;;1.77;;
9260;SDS011;4667;42.726;23.252;2023-04-03T01:58:18;2.17;;;2.07;;
9260;SDS011;4667;42.726;23.252;2023-04-03T02:00:45;2.13;;;1.93;;
9260;SDS011;4667;42.726;23.252;2023-04-03T02:03:13;1.60;;;1.50;;
9260;SDS011;4667;42.726;23.252;2023-04-03T02:05:40;1.77;;;1.67;;
9260;SDS011;4667;42.726;23.252;2023-04-03T02:08:08;2.43;;;2.23;;
9260;SDS011;4667;42.726;23.252;2023-04-03T02:10:35;2.83;;;2.30;;
9260;SDS011;4667;42.726;23.252;2023-04-03T02:13:03;2.10;;;1.60;;
9260;SDS011;4667;42.726;23.252;2023-04-03T02:15:30;3.17;;;2.33;;
9260;SDS011;4667;42.726;23.252;2023-04-03T02:17:57;1.53;;;1.43;;
9260;SDS011;4667;42.726;23.252;2023-04-03T02:20:24;2.13;;;1.93;;
9260;SDS011;4667;42.726;23.252;2023-04-03T02:22:52;1.47;;;1.37;;
9260;SDS011;4667;42.726;23.252;2023-04-03T02:25:21;1.90;;;1.80;;
9260;SDS011;4667;42.726;23.252;2023-04-03T02:27:48;1.83;;;1.73;;
9260;SDS011;4667;42.726;23.252;2023-04-03T02:30:16;3.00;;;2.33;;
9260;SDS011;4667;42.726;23.252;2023-04-03T02:32:43;1.60;;;1.50;;
9260;SDS011;4667;42.726;23.252;2023-04-03T02:35:11;1.97;;;1.77;;
9260;SDS011;4667;42.726;23.252;2023-04-03T02:37:38;2.47;;;1.83;;
9260;SDS011;4667;42.726;23.252;2023-04-03T02:40:06;2.00;;;1.80;;
9260;SDS011;4667;42.726;23.252;2023-04-03T02:42:35;1.93;;;1.50;;
9260;SDS011;4667;42.726;23.252;2023-04-03T02:45:02;2.20;;;1.90;;
9260;SDS011;4667;42.726;23.252;2023-04-03T02:47:30;5.83;;;2.10;;
9260;SDS011;4667;42.726;23.252;2023-04-03T02:49:57;1.80;;;1.70;;
9260;SDS011;4667;42.726;23.252;2023-04-03T02:52:24;4.33;;;2.13;;
9260;SDS011;4667;42.726;23.252;2023-04-03T02:54:51;2.23;;;1.70;;
9260;SDS011;4667;42.726;23.252;2023-04-03T02:57:18;3.17;;;1.67;;
9260;SDS011;4667;42.726;23.252;2023-04-03T02:59:47;3.07;;;2.23;;
9260;SDS011;4667;42.726;23.252;2023-04-03T03:02:15;1.70;;;1.60;;
9260;SDS011;4667;42.726;23.252;2023-04-03T03:04:42;2.77;;;2.13;;
9260;SDS011;4667;42.726;23.252;2023-04-03T03:07:09;2.43;;;2.23;;
9260;SDS011;4667;42.726;23.252;2023-04-03T03:09:36;3.00;;;2.17;;
9260;SDS011;4667;42.726;23.252;2023-04-03T03:12:03;2.33;;;2.13;;
9260;SDS011;4667;42.726;23.252;2023-04-03T03:14:30;4.73;;;2.60;;
9260;SDS011;4667;42.726;23.252;2023-04-03T03:16:58;2.43;;;1.93;;
9260;SDS011;4667;42.726;23.252;2023-04-03T03:19:28;4.20;;;2.67;;
9260;SDS011;4667;42.726;23.252;2023-04-03T03:21:55;2.87;;;2.63;;
9260;SDS011;4667;42.726;23.252;2023-04-03T03:24:22;4.00;;;1.83;;
9260;SDS011;4667;42.726;23.252;2023-04-03T03:26:49;2.43;;;2.20;;
9260;SDS011;4667;42.726;23.252;2023-04-03T03:29:16;2.77;;;2.57;;
9260;SDS011;4667;42.726;23.252;2023-04-03T03:31:42;4.27;;;2.37;;
9260;SDS011;4667;42.726;23.252;2023-04-03T03:34:11;2.60;;;2.40;;
9260;SDS011;4667;42.726;23.252;2023-04-03T03:36:38;3.93;;;2.80;;
9260;SDS011;4667;42.726;23.252;2023-04-03T03:39:06;3.30;;;2.80;;
9260;SDS011;4667;42.726;23.252;2023-04-03T03:41:33;2.80;;;2.47;;
9260;SDS011;4667;42.726;23.252;2023-04-03T03:44:00;9.83;;;2.60;;
9260;SDS011;4667;42.726;23.252;2023-04-03T03:46:26;4.10;;;3.00;;
9260;SDS011;4667;42.726;23.252;2023-04-03T03:48:53;5.13;;;3.40;;
9260;SDS011;4667;42.726;23.252;2023-04-03T03:51:22;4.10;;;2.53;;
9260;SDS011;4667;42.726;23.252;2023-04-03T03:53:49;6.67;;;2.50;;
9260;SDS011;4667;42.726;23.252;2023-04-03T03:56:16;3.53;;;3.23;;
9260;SDS011;4667;42.726;23.252;2023-04-03T03:58:43;4.37;;;2.90;;
9260;SDS011;4667;42.726;23.252;2023-04-03T04:01:17;3.77;;;2.77;;
9260;SDS011;4667;42.726;23.252;2023-04-03T04:04:00;14.03;;;2.97;;
9260;SDS011;4667;42.726;23.252;2023-04-03T04:06:43;4.67;;;2.87;;
9260;SDS011;4667;42.726;23.252;2023-04-03T04:09:10;5.23;;;3.23;;
9260;SDS011;4667;42.726;23.252;2023-04-03T04:11:37;3.43;;;2.90;;
9260;SDS011;4667;42.726;23.252;2023-04-03T04:14:07;5.27;;;3.20;;
9260;SDS011;4667;42.726;23.252;2023-04-03T04:16:48;3.37;;;2.43;;
9260;SDS011;4667;42.726;23.252;2023-04-03T04:19:19;7.93;;;3.83;;
9260;SDS011;4667;42.726;23.252;2023-04-03T04:40:43;6.23;;;3.17;;
9260;SDS011;4667;42.726;23.252;2023-04-03T04:43:12;4.40;;;3.53;;
9260;SDS011;4667;42.726;23.252;2023-04-03T04:45:39;4.90;;;3.43;;
9260;SDS011;4667;42.726;23.252;2023-04-03T04:48:20;9.73;;;4.23;;
9260;SDS011;4667;42.726;23.252;2023-04-03T04:51:01;3.87;;;3.27;;
9260;SDS011;4667;42.726;23.252;2023-04-03T04:56:54;5.80;;;3.57;;
9260;SDS011;4667;42.726;23.252;2023-04-03T04:59:32;8.27;;;3.57;;
9260;SDS011;4667;42.726;23.252;2023-04-03T05:02:15;6.77;;;3.03;;
9260;SDS011;4667;42.726;23.252;2023-04-03T05:04:42;6.07;;;4.23;;
9260;SDS011;4667;42.726;23.252;2023-04-03T05:07:09;5.07;;;3.63;;
9260;SDS011;4667;42.726;23.252;2023-04-03T05:09:47;6.23;;;3.43;;
9260;SDS011;4667;42.726;23.252;2023-04-03T05:12:16;3.90;;;3.50;;
9260;SDS011;4667;42.726;23.252;2023-04-03T05:14:43;6.50;;;4.67;;
9260;SDS011;4667;42.726;23.252;2023-04-03T05:17:10;4.57;;;3.93;;
9260;SDS011;4667;42.726;23.252;2023-04-03T05:19:36;4.90;;;3.60;;
9260;SDS011;4667;42.726;23.252;2023-04-03T05:22:03;15.53;;;5.27;;
9260;SDS011;4667;42.726;23.252;2023-04-03T05:24:30;13.33;;;6.43;;
9260;SDS011;4667;42.726;23.252;2023-04-03T05:26:57;11.80;;;5.07;;
9260;SDS011;4667;42.726;23.252;2023-04-03T05:29:25;8.93;;;5.23;;
9260;SDS011;4667;42.726;23.252;2023-04-03T05:31:52;8.83;;;5.40;;
9260;SDS011;4667;42.726;23.252;2023-04-03T05:34:19;10.70;;;5.67;;
9260;SDS011;4667;42.726;23.252;2023-04-03T05:36:46;13.90;;;5.97;;
9260;SDS011;4667;42.726;23.252;2023-04-03T05:39:20;8.07;;;5.63;;
9260;SDS011;4667;42.726;23.252;2023-04-03T05:41:48;7.87;;;5.10;;
9260;SDS011;4667;42.726;23.252;2023-04-03T05:44:15;9.53;;;5.27;;
9260;SDS011;4667;42.726;23.252;2023-04-03T05:46:46;3.83;;;3.30;;
9260;SDS011;4667;42.726;23.252;2023-04-03T05:49:13;4.90;;;3.17;;
9260;SDS011;4667;42.726;23.252;2023-04-03T05:51:40;4.67;;;3.67;;
9260;SDS011;4667;42.726;23.252;2023-04-03T05:54:09;4.73;;;3.17;;
9260;SDS011;4667;42.726;23.252;2023-04-03T05:56:38;5.23;;;3.70;;
9260;SDS011;4667;42.726;23.252;2023-04-03T05:59:05;2.97;;;2.73;;
9260;SDS011;4667;42.726;23.252;2023-04-03T06:01:32;4.40;;;3.10;;
9260;SDS011;4667;42.726;23.252;2023-04-03T06:04:01;3.93;;;3.03;;
9260;SDS011;4667;42.726;23.252;2023-04-03T06:06:42;4.20;;;3.20;;
9260;SDS011;4667;42.726;23.252;2023-04-03T06:09:10;3.03;;;2.73;;
9260;SDS011;4667;42.726;23.252;2023-04-03T06:11:37;4.37;;;3.40;;
9260;SDS011;4667;42.726;23.252;2023-04-03T06:14:04;4.77;;;3.27;;
9260;SDS011;4667;42.726;23.252;2023-04-03T06:16:32;4.03;;;3.57;;
9260;SDS011;4667;42.726;23.252;2023-04-03T06:18:58;7.63;;;4.47;;
9260;SDS011;4667;42.726;23.252;2023-04-03T06:21:27;6.07;;;4.23;;
9260;SDS011;4667;42.726;23.252;2023-04-03T06:23:54;6.67;;;4.30;;
9260;SDS011;4667;42.726;23.252;2023-04-03T06:26:21;6.80;;;4.70;;
9260;SDS011;4667;42.726;23.252;2023-04-03T06:28:47;7.37;;;5.07;;
9260;SDS011;4667;42.726;23.252;2023-04-03T06:31:14;6.30;;;4.90;;
9260;SDS011;4667;42.726;23.252;2023-04-03T06:33:42;7.13;;;4.77;;
9260;SDS011;4667;42.726;23.252;2023-04-03T06:36:10;7.70;;;4.67;;
9260;SDS011;4667;42.726;23.252;2023-04-03T06:38:38;8.03;;;5.00;;
9260;SDS011;4667;42.726;23.252;2023-04-03T06:41:05;9.13;;;5.60;;
9260;SDS011;4667;42.726;23.252;2023-04-03T06:43:32;6.60;;;4.97;;
9260;SDS011;4667;42.726;23.252;2023-04-03T06:45:58;6.90;;;5.10;;
9260;SDS011;4667;42.726;23.252;2023-04-03T06:48:26;17.43;;;6.00;;
9260;SDS011;4667;42.726;23.252;2023-04-03T06:50:53;5.77;;;4.77;;
9260;SDS011;4667;42.726;23.252;2023-04-03T06:53:22;7.63;;;5.50;;
9260;SDS011;4667;42.726;23.252;2023-04-03T06:55:49;9.27;;;5.50;;
9260;SDS011;4667;42.726;23.252;2023-04-03T06:58:16;5.73;;;4.23;;
9260;SDS011;4667;42.726;23.252;2023-04-03T07:00:43;5.87;;;4.37;;
9260;SDS011;4667;42.726;23.252;2023-04-03T07:03:12;8.60;;;4.80;;
9260;SDS011;4667;42.726;23.252;2023-04-03T07:05:39;5.97;;;4.93;;
9260;SDS011;4667;42.726;23.252;2023-04-03T07:08:05;4.80;;;3.50;;
9260;SDS011;4667;42.726;23.252;2023-04-03T07:10:34;6.97;;;4.47;;
9260;SDS011;4667;42.726;23.252;2023-04-03T07:13:01;14.30;;;3.97;;
9260;SDS011;4667;42.726;23.252;2023-04-03T07:15:27;5.00;;;3.83;;
9260;SDS011;4667;42.726;23.252;2023-04-03T07:17:54;4.87;;;4.00;;
9260;SDS011;4667;42.726;23.252;2023-04-03T07:20:21;5.00;;;3.77;;
9260;SDS011;4667;42.726;23.252;2023-04-03T07:22:48;7.27;;;4.37;;
9260;SDS011;4667;42.726;23.252;2023-04-03T07:25:15;5.67;;;4.20;;
9260;SDS011;4667;42.726;23.252;2023-04-03T07:27:46;4.30;;;3.17;;
9260;SDS011;4667;42.726;23.252;2023-04-03T07:30:14;6.27;;;3.63;;
9260;SDS011;4667;42.726;23.252;2023-04-03T07:32:41;8.47;;;3.83;;
9260;SDS011;4667;42.726;23.252;2023-04-03T07:35:08;3.57;;;3.10;;
9260;SDS011;4667;42.726;23.252;2023-04-03T07:37:35;4.63;;;3.90;;
9260;SDS011;4667;42.726;23.252;2023-04-03T07:40:02;5.50;;;3.57;;
9260;SDS011;4667;42.726;23.252;2023-04-03T07:42:30;4.90;;;3.13;;
9260;SDS011;4667;42.726;23.252;2023-04-03T07:44:58;3.97;;;3.10;;
9260;SDS011;4667;42.726;23.252;2023-04-03T07:47:25;3.30;;;2.93;;
9260;SDS011;4667;42.726;23.252;2023-04-03T07:49:52;7.67;;;3.47;;
9260;SDS011;4667;42.726;23.252;2023-04-03T07:52:18;6.07;;;4.30;;
9260;SDS011;4667;42.726;23.252;2023-04-03T07:54:45;3.43;;;3.13;;
9260;SDS011;4667;42.726;23.252;2023-04-03T07:57:12;4.90;;;3.57;;
9260;SDS011;4667;42.726;23.252;2023-04-03T07:59:39;4.77;;;2.83;;
9260;SDS011;4667;42.726;23.252;2023-04-03T08:02:09;4.67;;;3.23;;
9260;SDS011;4667;42.726;23.252;2023-04-03T08:04:39;4.33;;;3.50;;
9260;SDS011;4667;42.726;23.252;2023-04-03T08:07:06;5.37;;;3.57;;
9260;SDS011;4667;42.726;23.252;2023-04-03T08:09:33;5.20;;;3.40;;
9260;SDS011;4667;42.726;23.252;2023-04-03T08:11:59;4.17;;;3.70;;
9260;SDS011;4667;42.726;23.252;2023-04-03T08:14:26;7.63;;;3.73;;
9260;SDS011;4667;42.726;23.252;2023-04-03T08:16:53;7.23;;;4.63;;
9260;SDS011;4667;42.726;23.252;2023-04-03T08:19:21;4.17;;;3.40;;
9260;SDS011;4667;42.726;23.252;2023-04-03T08:21:48;3.77;;;3.33;;
9260;SDS011;4667;42.726;23.252;2023-04-03T08:24:15;6.47;;;3.20;;
9260;SDS011;4667;42.726;23.252;2023-04-03T08:26:41;5.57;;;3.57;;
9260;SDS011;4667;42.726;23.252;2023-04-03T08:29:08;3.80;;;3.50;;
9260;SDS011;4667;42.726;23.252;2023-04-03T08:31:35;5.57;;;3.50;;
9260;SDS011;4667;42.726;23.252;2023-04-03T08:34:03;7.67;;;4.30;;
9260;SDS011;4667;42.726;23.252;2023-04-03T08:36:31;8.13;;;4.73;;
9260;SDS011;4667;42.726;23.252;2023-04-03T08:38:58;5.53;;;4.50;;
9260;SDS011;4667;42.726;23.252;2023-04-03T08:41:27;7.37;;;4.23;;
9260;SDS011;4667;42.726;23.252;2023-04-03T08:44:00;9.60;;;5.00;;
9260;SDS011;4667;42.726;23.252;2023-04-03T08:46:35;5.73;;;4.90;;
9260;SDS011;4667;42.726;23.252;2023-04-03T08:49:15;7.47;;;5.40;;
9260;SDS011;4667;42.726;23.252;2023-04-03T08:51:51;10.20;;;4.60;;
9260;SDS011;4667;42.726;23.252;2023-04-03T08:54:26;6.80;;;4.23;;
9260;SDS011;4667;42.726;23.252;2023-04-03T08:56:56;6.87;;;4.60;;
9260;SDS011;4667;42.726;23.252;2023-04-03T08:59:27;5.87;;;4.57;;
9260;SDS011;4667;42.726;23.252;2023-04-03T09:01:57;6.67;;;4.67;;
9260;SDS011;4667;42.726;23.252;2023-04-03T09:04:27;9.50;;;5.13;;
9260;SDS011;4667;42.726;23.252;2023-04-03T09:07:00;12.37;;;5.83;;
9260;SDS011;4667;42.726;23.252;2023-04-03T09:09:31;10.30;;;6.17;;
9260;SDS011;4667;42.726;23.252;2023-04-03T09:12:04;9.10;;;5.67;;
9260;SDS011;4667;42.726;23.252;2023-04-03T09:14:41;6.23;;;4.97;;
9260;SDS011;4667;42.726;23.252;2023-04-03T09:17:13;7.53;;;4.80;;
9260;SDS011;4667;42.726;23.252;2023-04-03T09:19:47;8.50;;;5.50;;
9260;SDS011;4667;42.726;23.252;2023-04-03T09:22:23;6.77;;;5.77;;
9260;SDS011;4667;42.726;23.252;2023-04-03T09:24:53;6.37;;;5.13;;
9260;SDS011;4667;42.726;23.252;2023-04-03T09:27:25;7.20;;;5.87;;
9260;SDS011;4667;42.726;23.252;2023-04-03T09:29:52;9.13;;;5.33;;
9260;SDS011;4667;42.726;23.252;2023-04-03T09:32:22;8.43;;;5.53;;
9260;SDS011;4667;42.726;23.252;2023-04-03T09:34:53;6.87;;;5.50;;
9260;SDS011;4667;42.726;23.252;2023-04-03T09:37:36;10.07;;;5.03;;
9260;SDS011;4667;42.726;23.252;2023-04-03T09:40:06;7.93;;;6.13;;
9260;SDS011;4667;42.726;23.252;2023-04-03T09:42:54;7.73;;;5.27;;
9260;SDS011;4667;42.726;23.252;2023-04-03T09:46:16;13.00;;;6.00;;
9260;SDS011;4667;42.726;23.252;2023-04-03T09:48:52;7.77;;;5.50;;
9260;SDS011;4667;42.726;23.252;2023-04-03T09:51:39;15.80;;;6.20;;
9260;SDS011;4667;42.726;23.252;2023-04-03T09:57:08;9.00;;;5.47;;
9260;SDS011;4667;42.726;23.252;2023-04-03T09:59:47;7.80;;;5.17;;
9260;SDS011;4667;42.726;23.252;2023-04-03T10:05:30;12.13;;;5.70;;
9260;SDS011;4667;42.726;23.252;2023-04-03T10:08:07;9.30;;;6.20;;
9260;SDS011;4667;42.726;23.252;2023-04-03T10:10:37;11.53;;;4.93;;
9260;SDS011;4667;42.726;23.252;2023-04-03T10:13:06;7.97;;;5.10;;
9260;SDS011;4667;42.726;23.252;2023-04-03T10:15:36;14.47;;;5.23;;
9260;SDS011;4667;42.726;23.252;2023-04-03T10:18:10;9.37;;;7.03;;
9260;SDS011;4667;42.726;23.252;2023-04-03T10:20:53;8.23;;;5.77;;
9260;SDS011;4667;42.726;23.252;2023-04-03T10:23:24;7.83;;;5.07;;
9260;SDS011;4667;42.726;23.252;2023-04-03T10:25:59;8.30;;;5.17;;
9260;SDS011;4667;42.726;23.252;2023-04-03T10:28:39;8.40;;;5.77;;
9260;SDS011;4667;42.726;23.252;2023-04-03T10:31:13;17.70;;;5.73;;
9260;SDS011;4667;42.726;23.252;2023-04-03T10:33:48;8.53;;;5.03;;
9260;SDS011;4667;42.726;23.252;2023-04-03T10:36:27;9.97;;;4.87;;
9260;SDS011;4667;42.726;23.252;2023-04-03T10:39:05;8.00;;;4.67;;
9260;SDS011;4667;42.726;23.252;2023-04-03T10:41:45;5.10;;;3.80;;
9260;SDS011;4667;42.726;23.252;2023-04-03T10:44:26;6.73;;;3.97;;
9260;SDS011;4667;42.726;23.252;2023-04-03T10:47:02;8.93;;;4.27;;
9260;SDS011;4667;42.726;23.252;2023-04-03T10:49:40;6.53;;;4.30;;
9260;SDS011;4667;42.726;23.252;2023-04-03T10:52:17;7.03;;;4.33;;
9260;SDS011;4667;42.726;23.252;2023-04-03T10:54:50;6.77;;;4.43;;
9260;SDS011;4667;42.726;23.252;2023-04-03T10:57:26;5.27;;;3.63;;
9260;SDS011;4667;42.726;23.252;2023-04-03T10:59:56;8.20;;;3.03;;
9260;SDS011;4667;42.726;23.252;2023-04-03T11:02:28;3.67;;;2.77;;
9260;SDS011;4667;42.726;23.252;2023-04-03T11:04:59;4.43;;;3.23;;
9260;SDS011;4667;42.726;23.252;2023-04-03T11:07:36;3.07;;;2.77;;
9260;SDS011;4667;42.726;23.252;2023-04-03T11:10:10;4.90;;;2.60;;
9260;SDS011;4667;42.726;23.252;2023-04-03T11:12:44;3.80;;;3.27;;
9260;SDS011;4667;42.726;23.252;2023-04-03T11:15:16;5.23;;;2.57;;
9260;SDS011;4667;42.726;23.252;2023-04-03T11:17:48;5.33;;;3.20;;
9260;SDS011;4667;42.726;23.252;2023-04-03T11:20:21;4.10;;;2.77;;
9260;SDS011;4667;42.726;23.252;2023-04-03T11:22:53;4.23;;;3.20;;
9260;SDS011;4667;42.726;23.252;2023-04-03T11:25:30;3.37;;;2.73;;
9260;SDS011;4667;42.726;23.252;2023-04-03T11:28:01;5.03;;;2.13;;
9260;SDS011;4667;42.726;23.252;2023-04-03T11:30:31;3.10;;;2.47;;
9260;SDS011;4667;42.726;23.252;2023-04-03T11:33:11;4.93;;;2.77;;
9260;SDS011;4667;42.726;23.252;2023-04-03T11:35:55;3.47;;;2.50;;
9260;SDS011;4667;42.726;23.252;2023-04-03T11:38:27;5.07;;;3.57;;
9260;SDS011;4667;42.726;23.252;2023-04-03T11:40:59;3.43;;;2.63;;
9260;SDS011;4667;42.726;23.252;2023-04-03T11:43:30;3.03;;;2.73;;
9260;SDS011;4667;42.726;23.252;2023-04-03T11:45:59;2.53;;;2.30;;
9260;SDS011;4667;42.726;23.252;2023-04-03T12:03:33;5.40;;;2.80;;
9260;SDS011;4667;42.726;23.252;2023-04-03T12:12:29;4.37;;;3.30;;
9260;SDS011;4667;42.726;23.252;2023-04-03T12:21:19;5.63;;;3.90;;
9260;SDS011;4667;42.726;23.252;2023-04-03T12:23:58;4.07;;;3.67;;
9260;SDS011;4667;42.726;23.252;2023-04-03T12:26:28;4.67;;;3.80;;
9260;SDS011;4667;42.726;23.252;2023-04-03T12:28:58;5.80;;;3.50;;
9260;SDS011;4667;42.726;23.252;2023-04-03T12:31:32;4.03;;;3.23;;
9260;SDS011;4667;42.726;23.252;2023-04-03T12:34:12;4.20;;;2.83;;
9260;SDS011;4667;42.726;23.252;2023-04-03T12:39:50;3.13;;;2.83;;
9260;SDS011;4667;42.726;23.252;2023-04-03T12:42:25;3.40;;;2.63;;
9260;SDS011;4667;42.726;23.252;2023-04-03T12:45:02;2.43;;;1.97;;
9260;SDS011;4667;42.726;23.252;2023-04-03T12:47:40;2.30;;;1.90;;
9260;SDS011;4667;42.726;23.252;2023-04-03T12:50:16;2.60;;;2.40;;
9260;SDS011;4667;42.726;23.252;2023-04-03T12:52:51;2.37;;;2.07;;
9260;SDS011;4667;42.726;23.252;2023-04-03T12:55:23;2.43;;;2.23;;
9260;SDS011;4667;42.726;23.252;2023-04-03T12:57:51;3.30;;;1.90;;
9260;SDS011;4667;42.726;23.252;2023-04-03T13:00:21;3.63;;;2.00;;
9260;SDS011;4667;42.726;23.252;2023-04-03T13:02:54;2.87;;;2.43;;
9260;SDS011;4667;42.726;23.252;2023-04-03T13:05:21;4.10;;;2.50;;
9260;SDS011;4667;42.726;23.252;2023-04-03T13:07:52;4.50;;;2.70;;
9260;SDS011;4667;42.726;23.252;2023-04-03T13:10:26;4.63;;;2.97;;
9260;SDS011;4667;42.726;23.252;2023-04-03T13:12:54;2.60;;;2.40;;
9260;SDS011;4667;42.726;23.252;2023-04-03T13:15:23;2.83;;;2.60;;
9260;SDS011;4667;42.726;23.252;2023-04-03T13:17:55;3.33;;;2.43;;
9260;SDS011;4667;42.726;23.252;2023-04-03T13:20:24;2.40;;;2.20;;
9260;SDS011;4667;42.726;23.252;2023-04-03T13:22:58;3.77;;;3.07;;
9260;SDS011;4667;42.726;23.252;2023-04-03T13:25:28;3.33;;;2.80;;
9260;SDS011;4667;42.726;23.252;2023-04-03T13:27:57;4.53;;;3.77;;
9260;SDS011;4667;42.726;23.252;2023-04-03T13:30:28;4.97;;;3.30;;
9260;SDS011;4667;42.726;23.252;2023-04-03T13:33:00;5.50;;;3.63;;
9260;SDS011;4667;42.726;23.252;2023-04-03T13:36:05;5.60;;;3.73;;
9260;SDS011;4667;42.726;23.252;2023-04-03T13:38:40;4.20;;;3.77;;
9260;SDS011;4667;42.726;23.252;2023-04-03T13:41:25;7.93;;;5.00;;
9260;SDS011;4667;42.726;23.252;2023-04-03T13:43:55;7.03;;;5.00;;
9260;SDS011;4667;42.726;23.252;2023-04-03T13:46:24;6.17;;;4.80;;
9260;SDS011;4667;42.726;23.252;2023-04-03T13:48:54;9.90;;;4.47;;
9260;SDS011;4667;42.726;23.252;2023-04-03T13:51:24;4.27;;;3.87;;
9260;SDS011;4667;42.726;23.252;2023-04-03T13:54:12;4.57;;;3.50;;
9260;SDS011;4667;42.726;23.252;2023-04-03T13:56:44;4.87;;;3.70;;
9260;SDS011;4667;42.726;23.252;2023-04-03T14:02:09;6.00;;;4.53;;
9260;SDS011;4667;42.726;23.252;2023-04-03T14:04:47;6.10;;;5.13;;
9260;SDS011;4667;42.726;23.252;2023-04-03T14:07:26;5.73;;;4.30;;
9260;SDS011;4667;42.726;23.252;2023-04-03T14:10:06;6.87;;;3.70;;
9260;SDS011;4667;42.726;23.252;2023-04-03T14:12:35;6.50;;;3.80;;
9260;SDS011;4667;42.726;23.252;2023-04-03T14:15:14;4.80;;;4.17;;
9260;SDS011;4667;42.726;23.252;2023-04-03T14:23:00;3.97;;;3.13;;
9260;SDS011;4667;42.726;23.252;2023-04-03T14:31:05;6.90;;;4.33;;
9260;SDS011;4667;42.726;23.252;2023-04-03T14:36:35;5.20;;;4.00;;
9260;SDS011;4667;42.726;23.252;2023-04-03T14:39:16;5.73;;;4.17;;
9260;SDS011;4667;42.726;23.252;2023-04-03T14:41:44;5.00;;;3.63;;
9260;SDS011;4667;42.726;23.252;2023-04-03T14:44:26;6.30;;;4.23;;
9260;SDS011;4667;42.726;23.252;2023-04-03T14:47:16;3.63;;;3.20;;
9260;SDS011;4667;42.726;23.252;2023-04-03T14:49:47;3.67;;;3.03;;
9260;SDS011;4667;42.726;23.252;2023-04-03T14:52:29;3.90;;;2.63;;
9260;SDS011;4667;42.726;23.252;2023-04-03T14:55:02;4.17;;;3.13;;
9260;SDS011;4667;42.726;23.252;2023-04-03T15:00:11;4.57;;;3.87;;
9260;SDS011;4667;42.726;23.252;2023-04-03T15:02:57;4.63;;;3.93;;
9260;SDS011;4667;42.726;23.252;2023-04-03T15:16:52;4.10;;;2.93;;
9260;SDS011;4667;42.726;23.252;2023-04-03T15:34:34;4.17;;;3.60;;
9260;SDS011;4667;42.726;23.252;2023-04-03T15:37:16;4.07;;;3.30;;
9260;SDS011;4667;42.726;23.252;2023-04-03T15:42:24;2.87;;;2.67;;
9260;SDS011;4667;42.726;23.252;2023-04-03T15:45:17;3.60;;;2.90;;
9260;SDS011;4667;42.726;23.252;2023-04-03T15:48:04;3.63;;;2.87;;
9260;SDS011;4667;42.726;23.252;2023-04-03T15:50:35;2.37;;;2.17;;
9260;SDS011;4667;42.726;23.252;2023-04-03T15:53:13;3.87;;;2.97;;
9260;SDS011;4667;42.726;23.252;2023-04-03T15:55:55;3.13;;;2.70;;
9260;SDS011;4667;42.726;23.252;2023-04-03T15:58:40;7.53;;;3.90;;
9260;SDS011;4667;42.726;23.252;2023-04-03T16:01:21;6.87;;;2.97;;
9260;SDS011;4667;42.726;23.252;2023-04-03T16:06:55;3.77;;;3.40;;
9260;SDS011;4667;42.726;23.252;2023-04-03T16:09:23;5.17;;;3.67;;
9260;SDS011;4667;42.726;23.252;2023-04-03T16:11:52;6.53;;;3.80;;
9260;SDS011;4667;42.726;23.252;2023-04-03T16:14:33;7.13;;;3.73;;
9260;SDS011;4667;42.726;23.252;2023-04-03T16:17:00;5.27;;;4.17;;
9260;SDS011;4667;42.726;23.252;2023-04-03T16:19:46;4.10;;;3.73;;
9260;SDS011;4667;42.726;23.252;2023-04-03T16:22:13;5.77;;;3.73;;
9260;SDS011;4667;42.726;23.252;2023-04-03T16:24:53;4.20;;;3.50;;
9260;SDS011;4667;42.726;23.252;2023-04-03T16:27:39;7.37;;;3.87;;
9260;SDS011;4667;42.726;23.252;2023-04-03T16:30:10;4.77;;;3.57;;
9260;SDS011;4667;42.726;23.252;2023-04-03T16:32:37;4.10;;;3.03;;
9260;SDS011;4667;42.726;23.252;2023-04-03T16:38:14;1.83;;;1.73;;
9260;SDS011;4667;42.726;23.252;2023-04-03T16:40:46;2.90;;;2.30;;
9260;SDS011;4667;42.726;23.252;2023-04-03T16:43:21;7.57;;;3.13;;
9260;SDS011;4667;42.726;23.252;2023-04-03T16:45:48;2.60;;;2.40;;
9260;SDS011;4667;42.726;23.252;2023-04-03T16:48:15;4.97;;;3.90;;
9260;SDS011;4667;42.726;23.252;2023-04-03T16:50:41;3.30;;;2.97;;
9260;SDS011;4667;42.726;23.252;2023-04-03T16:53:13;5.30;;;4.10;;
9260;SDS011;4667;42.726;23.252;2023-04-03T16:55:41;4.67;;;4.07;;
9260;SDS011;4667;42.726;23.252;2023-04-03T16:58:08;7.60;;;4.73;;
9260;SDS011;4667;42.726;23.252;2023-04-03T17:00:35;6.50;;;4.73;;
9260;SDS011;4667;42.726;23.252;2023-04-03T17:03:02;4.43;;;4.03;;
9260;SDS011;4667;42.726;23.252;2023-04-03T17:05:29;7.13;;;4.27;;
9260;SDS011;4667;42.726;23.252;2023-04-03T17:07:56;7.00;;;4.67;;
9260;SDS011;4667;42.726;23.252;2023-04-03T17:10:24;10.27;;;6.30;;
9260;SDS011;4667;42.726;23.252;2023-04-03T17:12:52;6.20;;;5.10;;
9260;SDS011;4667;42.726;23.252;2023-04-03T17:15:19;5.13;;;4.17;;
9260;SDS011;4667;42.726;23.252;2023-04-03T17:17:47;8.30;;;3.17;;
9260;SDS011;4667;42.726;23.252;2023-04-03T17:20:16;4.33;;;3.90;;
9260;SDS011;4667;42.726;23.252;2023-04-03T17:22:49;4.50;;;3.57;;